OPA Logo
 
ASOS:
At:2021.01.25 0455 UTC
Wind:290° @ 5KT
Viz: 10 mile(s)
Sky: mostly cloudy
Temp: 28 F (-2 C)
DewP: 21 F (-6 C):1
RH: 24 F (-4 C)
Baro: 24 F (-4 C)
ob: KBDN 250455Z AUTO 29005KT 10SM FEW044 BKN055 M02/M04 A2969 RMK AO2

ASOS: KRDM
At:2021.01.25 0404 UTC
Wind:220° @ 4KT
Viz: 5 mile(s)
Sky: overcast
Temp: mist
DewP: 28.9 F (-1.7 C)
RH: 23 F (-5 C):1
Baro: 23 F (-5 C):1
ob: KRDM 250404Z 22004KT 5SM BR FEW001 SCT019 OVC050 M02/M03 A2967 RMK AO2 T10171033
Apache-SSL Logo

Valid HTML 4.01!

Local FAA Notices



15 May 2002 - FAA APPROVES 4 new antennas near St. Charles Hospital


2 May 2002, FAA Northwest Mountain Region Letter to Airmen 02-01

VFR Practice Approaches: Page 1, Page 2, Page 3, Page 4.


11 Apr 2002 - FAA Public Notice, 4 new antennas near St. Charles Hospital



Web page by: gem@rellim.com